Time;durP1;ratioP1;P1;durP2;ratioP2;P2;SDS_P1;SDS_P2;PMS_P1;PMS_P2;Temp;Humidity;BMP_temperature;BMP_pressure;BME280_temperature;BME280_humidity;BME280_pressure;Samples;Min_cycle;Max_cycle;Signal;HPM_P1;HPM_P2
2023/04/11 00:02:23;;;;;;;16.73;2.65;;;;;;;-143.48;88.30;118439.88;5053314;28;20023;-67
2023/04/11 00:04:48;;;;;;;18.50;2.97;;;;;;;-143.48;88.21;118439.88;5053109;28;20035;-68
2023/04/11 00:07:14;;;;;;;22.13;2.92;;;;;;;-143.48;89.86;118439.88;5053119;28;20021;-68
2023/04/11 00:09:39;;;;;;;20.35;3.33;;;;;;;-143.48;90.22;118439.88;5053045;28;20025;-68
2023/04/11 00:12:05;;;;;;;20.00;2.95;;;;;;;-143.48;89.47;118439.88;5053196;28;20555;-67
2023/04/11 00:14:33;;;;;;;19.90;3.22;;;;;;;-143.48;90.41;118439.88;5053053;28;20060;-67
2023/04/11 00:17:02;;;;;;;22.27;3.55;;;;;;;-143.48;90.34;118439.88;5035006;28;20025;-67
2023/04/11 00:19:28;;;;;;;19.20;2.97;;;;;;;-143.48;90.55;118439.88;5052922;28;20025;-67
2023/04/11 00:21:57;;;;;;;24.67;3.22;;;;;;;-143.48;89.50;118439.88;5052821;28;20029;-68
2023/04/11 00:24:22;;;;;;;19.00;2.97;;;;;;;-143.48;90.18;118439.88;5052839;28;20020;-67
2023/04/11 00:26:48;;;;;;;19.70;3.42;;;;;;;-143.48;90.48;118439.88;5052840;28;20106;-67
2023/04/11 00:29:13;;;;;;;22.38;3.67;;;;;;;-143.48;90.72;118439.88;5052889;28;20060;-68
2023/04/11 00:31:38;;;;;;;17.85;3.17;;;;;;;-143.48;91.29;118439.88;5052835;28;20391;-66
2023/04/11 00:34:04;;;;;;;23.02;3.75;;;;;;;-143.48;91.08;118439.88;5035128;28;20025;-68
2023/04/11 00:36:30;;;;;;;16.67;2.85;;;;;;;-143.48;91.31;118439.88;5034935;28;20480;-68
2023/04/11 00:38:57;;;;;;;29.23;3.13;;;;;;;-143.48;92.29;118439.88;5052778;28;20099;-68
2023/04/11 00:41:23;;;;;;;24.15;3.55;;;;;;;-143.48;91.98;118439.88;5052630;28;20053;-68
2023/04/11 00:43:48;;;;;;;22.35;2.90;;;;;;;-143.48;92.55;118439.88;5056252;28;20024;-68
2023/04/11 00:46:15;;;;;;;28.67;4.13;;;;;;;-143.48;92.83;118439.88;5056109;28;20025;-67
2023/04/11 00:48:41;;;;;;;24.13;3.35;;;;;;;-143.48;92.91;118439.88;5056144;28;20028;-67
2023/04/11 00:51:07;;;;;;;23.45;3.63;;;;;;;-143.48;93.47;118439.88;5056350;28;20064;-67
2023/04/11 00:53:35;;;;;;;26.92;3.20;;;;;;;-143.48;93.62;118439.88;5055991;28;20025;-67
2023/04/11 00:56:01;;;;;;;25.45;3.63;;;;;;;-143.48;94.13;118439.88;5055972;28;20507;-67
2023/04/11 00:58:28;;;;;;;28.35;3.25;;;;;;;-143.48;92.37;118439.88;5037916;28;20025;-68
2023/04/11 01:00:54;;;;;;;16.90;2.40;;;;;;;-143.48;93.34;118439.88;5056020;28;20403;-67
2023/04/11 01:03:21;;;;;;;24.20;3.30;;;;;;;-143.48;92.01;118439.88;5056055;28;20111;-67
2023/04/11 01:05:48;;;;;;;26.02;3.40;;;;;;;-143.48;92.91;118439.88;5057804;28;20036;-67
2023/04/11 01:08:15;;;;;;;13.45;2.33;;;;;;;-143.48;91.49;118439.88;5055836;28;20056;-67
2023/04/11 01:10:40;;;;;;;18.33;3.15;;;;;;;-143.48;88.28;118439.88;5055816;28;20029;-67
2023/04/11 01:13:07;;;;;;;18.70;2.40;;;;;;;-143.48;88.63;118439.88;5037975;28;20028;-66
2023/04/11 01:15:32;;;;;;;12.45;2.42;;;;;;;-143.48;88.66;118439.88;5055619;28;20032;-68
2023/04/11 01:18:01;;;;;;;20.65;2.65;;;;;;;-143.48;88.56;118439.88;5055587;28;20197;-67
2023/04/11 01:20:28;;;;;;;11.15;2.35;;;;;;;-143.48;87.94;118439.88;5055632;28;20028;-68
2023/04/11 01:22:56;;;;;;;12.60;1.67;;;;;;;-143.48;87.18;118439.88;5055906;28;20056;-68
2023/04/11 01:25:22;;;;;;;12.57;1.65;;;;;;;-143.48;88.07;118439.88;5055527;28;20425;-68
2023/04/11 01:27:48;;;;;;;10.30;1.40;;;;;;;-143.48;85.70;118439.88;5055487;28;20047;-68
2023/04/11 01:30:13;;;;;;;16.80;2.13;;;;;;;-143.48;86.12;118439.88;5037554;28;20017;-68
2023/04/11 01:32:38;;;;;;;12.82;1.90;;;;;;;-143.48;86.46;118439.88;5055277;28;20032;-68
2023/04/11 01:35:05;;;;;;;16.15;1.95;;;;;;;-143.48;86.29;118439.88;5055414;28;20480;-68
2023/04/11 01:37:31;;;;;;;18.48;2.22;;;;;;;-143.48;86.34;118439.88;5055549;28;20380;-67
2023/04/11 01:39:56;;;;;;;10.15;1.50;;;;;;;-143.48;87.18;118439.88;5055493;28;20021;-67
2023/04/11 01:42:22;;;;;;;9.85;1.45;;;;;;;-143.48;89.55;118439.88;5054974;28;20045;-67
2023/04/11 01:44:50;;;;;;;10.43;1.83;;;;;;;-143.48;86.01;118439.88;5037369;28;20091;-68
2023/04/11 01:47:15;;;;;;;13.20;1.80;;;;;;;-143.48;84.88;118439.88;5055067;28;20066;-67
2023/04/11 01:49:41;;;;;;;13.57;1.77;;;;;;;-143.48;87.75;118439.88;5055130;28;20033;-68
2023/04/11 01:52:06;;;;;;;11.25;2.22;;;;;;;-143.48;89.06;118439.88;5055095;28;20068;-67
2023/04/11 01:54:32;;;;;;;12.27;1.85;;;;;;;-143.48;87.94;118439.88;5035951;28;20024;-67
2023/04/11 01:56:57;;;;;;;12.68;1.83;;;;;;;-143.48;86.56;118439.88;5055081;28;20524;-67
2023/04/11 01:59:22;;;;;;;12.23;1.83;;;;;;;-143.48;85.02;118439.88;5036949;28;20404;-67
2023/04/11 02:01:47;;;;;;;13.75;1.75;;;;;;;-143.48;87.73;118439.88;5054898;28;20017;-67
2023/04/11 02:04:13;;;;;;;11.35;1.83;;;;;;;-143.48;86.90;118439.88;5054800;28;20020;-67
2023/04/11 02:06:38;;;;;;;16.90;2.85;;;;;;;-143.48;86.82;118439.88;5036972;28;20021;-68
2023/04/11 02:09:03;;;;;;;8.95;1.42;;;;;;;-143.48;87.16;118439.88;5054848;28;20033;-68
2023/04/11 02:11:29;;;;;;;16.00;2.05;;;;;;;-143.48;86.60;118439.88;5054823;28;20033;-67
2023/04/11 02:13:54;;;;;;;12.27;2.08;;;;;;;-143.48;85.49;118439.88;5054675;28;20388;-68
2023/04/11 02:16:24;;;;;;;14.32;1.92;;;;;;;-143.48;85.54;118439.88;5054663;28;20075;-67
2023/04/11 02:18:50;;;;;;;11.90;1.75;;;;;;;-143.48;85.60;118439.88;5036670;28;20106;-68
2023/04/11 02:21:16;;;;;;;10.93;1.92;;;;;;;-143.48;85.96;118439.88;5054580;28;20099;-66
2023/04/11 02:23:41;;;;;;;8.95;1.45;;;;;;;-143.48;86.12;118439.88;5054487;28;20098;-68
2023/04/11 02:26:06;;;;;;;8.23;1.73;;;;;;;-143.48;85.29;118439.88;5054274;28;20060;-67
2023/04/11 02:28:32;;;;;;;14.43;1.77;;;;;;;-143.48;85.72;118439.88;5054356;28;20106;-68
2023/04/11 02:30:57;;;;;;;8.43;1.48;;;;;;;-143.48;84.87;118439.88;5054418;28;20082;-68
2023/04/11 02:33:23;;;;;;;14.30;1.70;;;;;;;-143.48;86.44;118439.88;5054295;28;20059;-67
2023/04/11 02:35:48;;;;;;;13.20;1.80;;;;;;;-143.48;86.68;118439.88;5054289;28;20113;-67
2023/04/11 02:38:13;;;;;;;11.25;1.90;;;;;;;-143.48;86.15;118439.88;5036515;28;20020;-68
2023/04/11 02:40:39;;;;;;;13.00;2.28;;;;;;;-143.48;85.62;118439.88;5054194;28;20484;-68
2023/04/11 02:43:04;;;;;;;9.90;1.90;;;;;;;-143.48;85.91;118439.88;5053916;28;20049;-68
2023/04/11 02:45:30;;;;;;;10.55;1.77;;;;;;;-143.48;86.22;118439.88;5053993;28;20154;-68
2023/04/11 02:47:55;;;;;;;10.65;1.80;;;;;;;-143.48;86.03;118439.88;5054015;28;20096;-68
2023/04/11 02:50:21;;;;;;;12.73;2.30;;;;;;;-143.48;85.91;118439.88;5053999;28;20024;-68
2023/04/11 02:52:48;;;;;;;11.68;1.80;;;;;;;-143.48;84.97;118439.88;5053940;28;20064;-68
2023/04/11 02:55:13;;;;;;;7.97;2.08;;;;;;;-143.48;85.42;118439.88;5053772;28;20017;-68
2023/04/11 02:57:38;;;;;;;13.70;2.50;;;;;;;-143.48;84.74;118439.88;5053847;28;20032;-67
2023/04/11 03:00:06;;;;;;;15.50;2.03;;;;;;;-143.48;85.92;118439.88;5035711;28;20473;-68
2023/04/11 03:02:31;;;;;;;12.63;1.67;;;;;;;-143.48;85.54;118439.88;5053889;28;20079;-68
2023/04/11 03:04:57;;;;;;;9.20;1.55;;;;;;;-143.48;87.15;118439.88;5053365;28;20399;-67
2023/04/11 03:07:23;;;;;;;10.98;1.55;;;;;;;-143.48;86.46;118439.88;5053526;28;20033;-67
2023/04/11 03:09:49;;;;;;;13.23;2.33;;;;;;;-143.48;86.37;118439.88;5053618;28;20033;-67
2023/04/11 03:12:14;;;;;;;8.90;1.73;;;;;;;-143.48;86.65;118439.88;5035547;28;20112;-67
2023/04/11 03:14:40;;;;;;;12.90;1.70;;;;;;;-143.48;87.52;118439.88;5053434;28;20098;-68
2023/04/11 03:17:05;;;;;;;14.50;2.40;;;;;;;-143.48;87.37;118439.88;5035655;28;20013;-68
2023/04/11 03:19:31;;;;;;;14.07;2.20;;;;;;;-143.48;85.99;118439.88;5035572;28;20415;-68
2023/04/11 03:21:56;;;;;;;17.60;2.10;;;;;;;-143.48;85.55;118439.88;5035617;28;20025;-67
2023/04/11 03:24:21;;;;;;;17.25;1.92;;;;;;;-143.48;86.32;118439.88;5035816;28;20032;-67
2023/04/11 03:26:48;;;;;;;13.55;1.63;;;;;;;-143.48;85.86;118439.88;5053340;28;20021;-68
2023/04/11 03:29:15;;;;;;;14.43;1.83;;;;;;;-143.48;88.27;118439.88;5053605;28;20040;-68
2023/04/11 03:31:40;;;;;;;9.30;1.52;;;;;;;-143.48;88.66;118439.88;5053469;28;20029;-68
2023/04/11 03:34:06;;;;;;;10.52;1.58;;;;;;;-143.48;86.67;118439.88;5053379;28;20503;-67
2023/04/11 03:36:31;;;;;;;12.13;1.80;;;;;;;-143.48;86.12;118439.88;5053333;28;20035;-67
2023/04/11 03:38:56;;;;;;;9.73;2.38;;;;;;;-143.48;85.78;118439.88;5053286;28;20024;-68
2023/04/11 03:41:22;;;;;;;13.27;1.90;;;;;;;-143.48;88.30;118439.88;5053468;28;20049;-67
2023/04/11 03:43:47;;;;;;;12.82;2.15;;;;;;;-143.48;85.74;118439.88;5053221;28;20107;-67
2023/04/11 03:46:12;;;;;;;8.98;1.75;;;;;;;-143.48;85.67;118439.88;5053270;28;20162;-67
2023/04/11 03:48:38;;;;;;;12.88;1.88;;;;;;;-143.48;86.21;118439.88;5053220;28;20023;-67
2023/04/11 03:51:05;;;;;;;11.57;1.85;;;;;;;-143.48;87.17;118439.88;5053259;28;20017;-68
2023/04/11 03:53:30;;;;;;;15.80;2.03;;;;;;;-143.48;86.92;118439.88;5053213;28;20021;-66
2023/04/11 03:55:55;;;;;;;20.80;1.80;;;;;;;-143.48;86.88;118439.88;5035459;28;20048;-68
2023/04/11 03:58:21;;;;;;;9.63;1.55;;;;;;;-143.48;87.22;118439.88;5053227;28;20495;-67
2023/04/11 04:00:46;;;;;;;11.80;1.75;;;;;;;-143.48;87.27;118439.88;5053365;28;20020;-67
2023/04/11 04:03:12;;;;;;;11.75;1.65;;;;;;;-143.48;87.39;118439.88;5052914;28;20498;-69
2023/04/11 04:05:39;;;;;;;12.38;1.80;;;;;;;-143.48;87.44;118439.88;5053254;28;20494;-67
2023/04/11 04:08:04;;;;;;;12.07;1.98;;;;;;;-143.48;85.44;118439.88;5053033;28;20341;-66
2023/04/11 04:10:30;;;;;;;11.18;1.67;;;;;;;-143.48;87.66;118439.88;5035115;28;20036;-67
2023/04/11 04:12:55;;;;;;;11.85;1.73;;;;;;;-143.48;88.64;118439.88;5053029;28;20017;-67
2023/04/11 04:15:20;;;;;;;18.30;2.70;;;;;;;-143.48;87.91;118439.88;5053069;28;20027;-68
2023/04/11 04:17:45;;;;;;;10.05;1.63;;;;;;;-143.48;87.24;118439.88;5054864;28;20025;-68
2023/04/11 04:20:11;;;;;;;12.48;1.90;;;;;;;-143.48;86.33;118439.88;5056817;28;20469;-67
2023/04/11 04:22:37;;;;;;;9.80;1.95;;;;;;;-143.48;87.59;118439.88;5038821;28;20079;-67
2023/04/11 04:25:02;;;;;;;13.90;2.35;;;;;;;-143.48;88.43;118439.88;5056677;28;20021;-68
2023/04/11 04:27:28;;;;;;;8.70;1.38;;;;;;;-143.48;88.57;118439.88;5056830;28;20507;-68
2023/04/11 04:29:55;;;;;;;8.25;1.40;;;;;;;-143.48;85.72;118439.88;5038930;28;20060;-67
2023/04/11 04:32:21;;;;;;;8.48;1.80;;;;;;;-143.48;87.78;118439.88;5056635;28;20045;-67
2023/04/11 04:34:54;;;;;;;9.93;1.73;;;;;;;-143.48;87.25;118439.88;5056495;28;20096;-67
2023/04/11 04:37:21;;;;;;;12.05;2.30;;;;;;;-143.48;86.13;118439.88;5056605;28;20032;-68
2023/04/11 04:39:52;;;;;;;11.05;1.60;;;;;;;-143.48;85.73;118439.88;5056453;28;20033;-66
2023/04/11 04:42:22;;;;;;;7.68;1.75;;;;;;;-143.48;85.29;118439.88;5038591;28;20049;-67
2023/04/11 04:44:48;;;;;;;10.05;2.22;;;;;;;-143.48;85.75;118439.88;5056399;28;20025;-67
2023/04/11 04:47:14;;;;;;;9.85;1.48;;;;;;;-143.48;87.65;118439.88;5056260;28;20029;-67
2023/04/11 04:49:40;;;;;;;9.10;1.83;;;;;;;-143.48;84.60;118439.88;5038487;28;20025;-67
2023/04/11 04:52:05;;;;;;;8.55;1.67;;;;;;;-143.48;83.95;118439.88;5056391;28;20021;-67
2023/04/11 04:54:30;;;;;;;10.35;1.42;;;;;;;-143.48;83.22;118439.88;5056557;28;20433;-67
2023/04/11 04:56:56;;;;;;;8.88;1.70;;;;;;;-143.48;83.41;118439.88;5056355;28;20045;-67
2023/04/11 04:59:21;;;;;;;6.18;1.08;;;;;;;-143.48;84.55;118439.88;5038251;28;20028;-68
2023/04/11 05:01:50;;;;;;;9.15;1.88;;;;;;;-143.48;84.19;118439.88;5056127;28;20079;-68
2023/04/11 05:04:16;;;;;;;9.55;1.60;;;;;;;-143.48;82.99;118439.88;5056879;28;20021;-67
2023/04/11 05:06:41;;;;;;;13.77;2.30;;;;;;;-143.48;83.01;118439.88;5068797;28;20365;-68
2023/04/11 05:09:06;;;;;;;12.73;1.85;;;;;;;-143.48;83.72;118439.88;5056011;28;20444;-68
2023/04/11 05:11:32;;;;;;;10.60;1.65;;;;;;;-143.48;82.78;118439.88;5057136;28;20112;-69
2023/04/11 05:13:58;;;;;;;11.90;1.55;;;;;;;-143.48;84.29;118439.88;5061145;28;20101;-67
2023/04/11 05:16:23;;;;;;;6.15;1.40;;;;;;;-143.48;81.51;118439.88;5061946;28;20025;-68
2023/04/11 05:18:48;;;;;;;15.18;1.90;;;;;;;-143.48;80.18;118439.88;5055652;28;20425;-67
2023/04/11 05:21:14;;;;;;;10.95;1.65;;;;;;;-143.48;81.66;118439.88;5062036;28;20024;-68
2023/04/11 05:23:40;;;;;;;11.95;1.92;;;;;;;-143.48;82.96;118439.88;5057365;28;20096;-67
2023/04/11 05:26:11;;;;;;;11.05;1.70;;;;;;;-143.48;81.98;118439.88;5055615;28;20112;-68
2023/04/11 05:28:36;;;;;;;13.20;1.90;;;;;;;-143.48;82.72;118439.88;5056219;28;20021;-67
2023/04/11 05:31:02;;;;;;;9.90;2.10;;;;;;;-143.48;80.83;118439.88;5055546;28;20090;-67
2023/04/11 05:33:30;;;;;;;8.73;1.50;;;;;;;-143.48;82.65;118439.88;5055622;28;20021;-68
2023/04/11 05:35:55;;;;;;;10.75;2.03;;;;;;;-143.48;82.29;118439.88;5055476;28;20024;-68
2023/04/11 05:38:21;;;;;;;12.57;1.80;;;;;;;-143.48;81.83;118439.88;5041585;28;20465;-68
2023/04/11 05:40:46;;;;;;;8.43;1.60;;;;;;;-143.48;82.94;118439.88;5060288;28;20048;-67
2023/04/11 05:43:13;;;;;;;16.33;2.05;;;;;;;-143.48;81.66;118439.88;5056077;28;20060;-68
2023/04/11 05:45:39;;;;;;;6.35;1.80;;;;;;;-143.48;82.38;118439.88;5037488;28;20055;-68
2023/04/11 05:48:07;;;;;;;11.38;1.67;;;;;;;-143.48;81.47;118439.88;5037469;28;20108;-68
2023/04/11 05:50:33;;;;;;;12.48;1.80;;;;;;;-143.48;81.50;118439.88;5037207;28;20464;-67
2023/04/11 05:52:59;;;;;;;8.13;1.45;;;;;;;-143.48;81.57;118439.88;5037669;28;20027;-67
2023/04/11 05:55:24;;;;;;;14.23;1.65;;;;;;;-143.48;82.00;118439.88;5073054;28;20041;-67
2023/04/11 05:57:51;;;;;;;7.55;1.50;;;;;;;-143.48;82.43;118439.88;5037303;28;20017;-67
2023/04/11 06:00:17;;;;;;;10.07;1.70;;;;;;;-143.48;82.21;118439.88;5037362;28;20029;-67
2023/04/11 06:02:42;;;;;;;8.25;1.67;;;;;;;-143.48;82.30;118439.88;5055069;28;20024;-68
2023/04/11 06:05:14;;;;;;;10.23;1.92;;;;;;;-143.48;81.68;118439.88;5036918;28;20082;-69
2023/04/11 06:07:40;;;;;;;8.52;1.55;;;;;;;-143.48;81.60;118439.88;5055048;28;20067;-67
2023/04/11 06:10:06;;;;;;;8.27;1.70;;;;;;;-143.48;79.82;118439.88;5039159;28;20029;-67
2023/04/11 06:12:31;;;;;;;12.95;1.83;;;;;;;-143.48;67.96;118439.88;5054860;28;20029;-68
2023/04/11 06:14:57;;;;;;;10.65;2.00;;;;;;;-143.48;65.15;118439.88;5037107;28;20070;-68
2023/04/11 06:17:23;;;;;;;11.05;1.92;;;;;;;-143.48;77.07;118439.88;5054835;28;20075;-68
2023/04/11 06:19:48;;;;;;;11.52;2.13;;;;;;;-143.48;77.06;118439.88;5053390;28;20435;-67
2023/04/11 06:22:13;;;;;;;13.38;2.13;;;;;;;-143.48;77.46;118439.88;5036295;28;20052;-69
2023/04/11 06:24:39;;;;;;;9.40;2.08;;;;;;;-143.48;76.83;118439.88;5035238;28;20117;-68
2023/04/11 06:27:08;;;;;;;16.40;2.45;;;;;;;-143.48;76.82;118439.88;5052906;28;20040;-69
2023/04/11 06:29:35;;;;;;;13.13;2.00;;;;;;;-143.48;77.85;118439.88;5054431;28;20407;-68
2023/04/11 06:32:01;;;;;;;12.18;2.20;;;;;;;-143.48;76.39;118439.88;5052366;28;20029;-68
2023/04/11 06:34:26;;;;;;;14.70;2.03;;;;;;;-143.48;77.25;118439.88;5052210;28;20044;-68
2023/04/11 06:36:52;;;;;;;20.92;2.38;;;;;;;-143.48;77.10;118439.88;5052930;28;20388;-68
2023/04/11 06:39:17;;;;;;;13.02;1.98;;;;;;;-143.48;75.86;118439.88;5054222;28;20460;-68
2023/04/11 06:41:42;;;;;;;15.25;2.33;;;;;;;-143.48;69.35;118439.88;5054274;28;20055;-67
2023/04/11 06:44:08;;;;;;;13.05;2.45;;;;;;;-143.48;67.68;118439.88;5058613;28;20480;-67
2023/04/11 06:46:33;;;;;;;16.15;2.80;;;;;;;-143.48;72.08;118439.88;5038780;28;20389;-68
2023/04/11 06:48:59;;;;;;;13.00;2.45;;;;;;;-143.48;69.86;118439.88;5056743;28;20025;-68
2023/04/11 06:51:25;;;;;;;13.10;2.35;;;;;;;-143.48;66.06;118439.88;5057523;28;20031;-68
2023/04/11 06:53:51;;;;;;;16.02;2.50;;;;;;;-143.48;67.86;118439.88;5055428;28;20025;-68
2023/04/11 06:56:17;;;;;;;16.77;2.38;;;;;;;-143.48;70.14;118439.88;5056285;28;20502;-67
2023/04/11 06:58:42;;;;;;;12.52;2.50;;;;;;;-143.48;71.14;118439.88;5055050;28;20025;-68
2023/04/11 07:01:08;;;;;;;12.93;1.90;;;;;;;-143.48;75.57;118439.88;5037453;28;20483;-67
2023/04/11 07:03:33;;;;;;;11.73;2.08;;;;;;;-143.48;70.04;118439.88;5060698;28;20028;-67
2023/04/11 07:05:58;;;;;;;10.43;2.33;;;;;;;-143.48;62.09;118439.88;5062426;28;20094;-68
2023/04/11 07:08:24;;;;;;;12.80;2.50;;;;;;;-143.48;59.31;118439.88;5055078;28;20024;-68
2023/04/11 07:10:49;;;;;;;16.77;2.63;;;;;;;-143.48;63.63;118439.88;5053220;28;20435;-68
2023/04/11 07:13:16;;;;;;;13.57;2.60;;;;;;;-143.48;53.55;118439.88;5034963;28;20143;-68
2023/04/11 07:15:41;;;;;;;13.68;2.50;;;;;;;-143.48;51.74;118439.88;5036145;28;20029;-68
2023/04/11 07:18:06;;;;;;;14.00;2.67;;;;;;;-143.48;53.83;118439.88;5036027;28;20127;-68
2023/04/11 07:20:33;;;;;;;12.57;2.40;;;;;;;-143.48;51.02;118439.88;5053000;28;20622;-69
2023/04/11 07:22:58;;;;;;;11.68;2.40;;;;;;;-143.48;52.79;118439.88;5053173;28;20025;-68
2023/04/11 07:25:29;;;;;;;11.80;2.35;;;;;;;-143.48;53.01;118439.88;5053792;28;20021;-68
2023/04/11 07:27:55;;;;;;;14.43;3.05;;;;;;;-143.48;47.98;118439.88;5041083;28;20031;-70
2023/04/11 07:30:21;;;;;;;13.90;3.28;;;;;;;-143.48;57.24;118439.88;5056838;28;20024;-67
2023/04/11 07:32:46;;;;;;;11.48;2.50;;;;;;;-143.48;52.76;118439.88;5055740;28;20108;-67
2023/04/11 07:35:11;;;;;;;12.40;2.40;;;;;;;-143.48;54.68;118439.88;5054947;28;20028;-67
2023/04/11 07:37:37;;;;;;;13.30;2.55;;;;;;;-143.48;61.02;118439.88;5055915;28;20104;-68
2023/04/11 07:40:07;;;;;;;12.35;2.42;;;;;;;-143.48;63.86;118439.88;5055740;28;20072;-67
2023/04/11 07:42:34;;;;;;;14.25;2.65;;;;;;;-143.48;63.27;118439.88;5035642;28;20053;-67
2023/04/11 07:45:00;;;;;;;13.18;2.30;;;;;;;-143.48;63.42;118439.88;5054191;28;20356;-67
2023/04/11 07:47:25;;;;;;;17.98;2.78;;;;;;;-143.48;64.68;118439.88;5054534;28;20116;-68
2023/04/11 07:49:51;;;;;;;10.05;2.10;;;;;;;-143.48;59.52;118439.88;5054881;28;20104;-68
2023/04/11 07:52:16;;;;;;;14.52;2.42;;;;;;;-143.48;57.95;118439.88;5058175;28;20439;-68
2023/04/11 07:54:42;;;;;;;16.90;2.58;;;;;;;-143.48;60.97;118439.88;5058203;28;20083;-69
2023/04/11 07:57:07;;;;;;;14.27;2.47;;;;;;;-143.48;54.75;118439.88;5057120;28;20083;-69
2023/04/11 07:59:32;;;;;;;15.05;2.72;;;;;;;-143.48;58.63;118439.88;5056943;28;20031;-67
2023/04/11 08:01:59;;;;;;;11.50;2.03;;;;;;;-143.48;59.14;118439.88;5039143;28;20025;-70
2023/04/11 08:04:25;;;;;;;11.70;1.92;;;;;;;-143.48;56.94;118439.88;5063850;28;20407;-68
2023/04/11 08:06:51;;;;;;;9.40;2.17;;;;;;;-143.48;53.35;118439.88;5058043;28;20034;-68
2023/04/11 08:09:16;;;;;;;9.68;2.20;;;;;;;-143.48;54.46;118439.88;5057401;28;20024;-68
2023/04/11 08:11:41;;;;;;;14.65;2.20;;;;;;;-143.48;54.00;118439.88;5040549;28;20098;-68
2023/04/11 08:14:07;;;;;;;9.10;1.92;;;;;;;-143.48;56.93;118439.88;5056244;28;20017;-69
2023/04/11 08:16:33;;;;;;;14.80;2.17;;;;;;;-143.48;58.05;118439.88;5038797;28;20017;-68
2023/04/11 08:18:58;;;;;;;13.48;2.10;;;;;;;-143.48;51.25;118439.88;5037865;28;20449;-67
2023/04/11 08:21:24;;;;;;;16.33;2.40;;;;;;;-143.48;57.29;118439.88;5056204;28;20023;-67
2023/04/11 08:23:49;;;;;;;12.15;2.25;;;;;;;-143.48;52.37;118439.88;5056788;28;20116;-67
2023/04/11 08:26:15;;;;;;;13.02;2.20;;;;;;;-143.48;51.15;118439.88;5057065;28;20427;-68
2023/04/11 08:28:41;;;;;;;12.00;2.30;;;;;;;-143.48;46.50;118439.88;5056197;28;20020;-67
2023/04/11 08:31:09;;;;;;;12.63;2.35;;;;;;;-143.48;50.19;118439.88;5055556;28;20040;-67
2023/04/11 08:33:34;;;;;;;10.02;2.10;;;;;;;-143.48;49.96;118439.88;5055457;28;20032;-69
2023/04/11 08:36:00;;;;;;;10.52;2.03;;;;;;;-143.48;48.35;118439.88;5055454;28;20021;-68
2023/04/11 08:38:25;;;;;;;8.05;1.85;;;;;;;-143.48;51.17;118439.88;5055560;28;20674;-68
2023/04/11 08:40:50;;;;;;;13.93;2.10;;;;;;;-143.48;46.53;118439.88;5055728;28;20028;-68
2023/04/11 08:43:16;;;;;;;9.95;1.88;;;;;;;-143.48;49.17;118439.88;5038168;28;20369;-68
2023/04/11 08:45:41;;;;;;;13.15;2.33;;;;;;;-143.48;53.15;118439.88;5055303;28;20033;-68
2023/04/11 08:48:08;;;;;;;10.23;1.95;;;;;;;-143.48;51.29;118439.88;5056331;28;20025;-68
2023/04/11 08:50:34;;;;;;;12.65;2.38;;;;;;;-143.48;53.15;118439.88;5056350;28;20098;-68
2023/04/11 08:53:01;;;;;;;16.88;2.50;;;;;;;-143.48;54.45;118439.88;5056256;28;20495;-68
2023/04/11 08:55:27;;;;;;;9.57;1.85;;;;;;;-143.48;51.67;118439.88;5056599;28;20024;-68
2023/04/11 08:57:53;;;;;;;15.35;2.35;;;;;;;-143.48;52.61;118439.88;5056140;28;20031;-68
2023/04/11 09:00:22;;;;;;;10.55;1.70;;;;;;;-143.48;52.26;118439.88;5056528;28;20028;-68
2023/04/11 09:02:59;;;;;;;10.57;2.17;;;;;;;-143.48;50.19;118439.88;5037483;28;20540;-67
2023/04/11 09:05:32;;;;;;;11.02;1.92;;;;;;;-143.48;50.47;118439.88;5057234;28;20036;-68
2023/04/11 09:08:09;;;;;;;12.57;1.75;;;;;;;-143.48;48.23;118439.88;5056969;28;20075;-67
2023/04/11 09:10:35;;;;;;;11.93;1.63;;;;;;;-143.48;49.35;118439.88;5057902;28;20024;-68
2023/04/11 09:13:17;;;;;;;11.98;2.17;;;;;;;-143.48;49.45;118439.88;5063260;28;20522;-68
2023/04/11 09:15:42;;;;;;;9.88;2.17;;;;;;;-143.48;51.36;118439.88;5062579;28;20051;-68
2023/04/11 09:18:08;;;;;;;10.23;1.95;;;;;;;-143.48;51.04;118439.88;5061175;28;20024;-68
2023/04/11 09:20:33;;;;;;;10.02;2.00;;;;;;;-143.48;51.61;118439.88;5058588;28;20048;-68
2023/04/11 09:22:58;;;;;;;11.25;1.90;;;;;;;-143.48;49.58;118439.88;5039666;28;20025;-68
2023/04/11 09:25:24;;;;;;;10.10;1.90;;;;;;;-143.48;49.63;118439.88;5059645;28;20055;-68
2023/04/11 09:28:05;;;;;;;11.50;2.03;;;;;;;-143.48;50.50;118439.88;5058911;28;20027;-68
2023/04/11 09:30:30;;;;;;;9.35;1.80;;;;;;;-143.48;50.57;118439.88;5056840;28;20057;-68
2023/04/11 09:32:57;;;;;;;9.52;1.60;;;;;;;-143.48;50.36;118439.88;5056907;28;20388;-68
2023/04/11 09:35:27;;;;;;;9.43;2.05;;;;;;;-143.48;50.37;118439.88;5057115;28;20056;-69
2023/04/11 09:37:54;;;;;;;11.25;2.08;;;;;;;-143.48;49.85;118439.88;5054584;28;20465;-69
2023/04/11 09:40:25;;;;;;;8.55;2.00;;;;;;;-143.48;47.62;118439.88;5055305;28;20082;-68
2023/04/11 09:43:02;;;;;;;13.15;1.70;;;;;;;-143.48;48.03;118439.88;5054309;28;20063;-68
2023/04/11 09:45:29;;;;;;;9.63;2.00;;;;;;;-143.48;47.17;118439.88;5054248;28;20025;-68
2023/04/11 09:47:56;;;;;;;6.22;1.70;;;;;;;-143.48;46.94;118439.88;5056286;28;20040;-68
2023/04/11 09:50:22;;;;;;;9.05;2.42;;;;;;;-143.48;45.24;118439.88;5039356;28;20027;-67
2023/04/11 09:52:48;;;;;;;6.03;1.70;;;;;;;-143.48;44.12;118439.88;5040254;28;20055;-68
2023/04/11 09:55:17;;;;;;;10.00;1.83;;;;;;;-143.48;46.58;118439.88;5060643;28;20025;-68
2023/04/11 09:57:48;;;;;;;11.63;1.70;;;;;;;-143.48;44.57;118439.88;5055878;28;20017;-68
2023/04/11 10:00:17;;;;;;;11.80;1.80;;;;;;;-143.48;46.26;118439.88;5036497;28;20078;-67
2023/04/11 10:02:43;;;;;;;8.95;1.70;;;;;;;-143.48;46.35;118439.88;5037743;28;20035;-68
2023/04/11 10:05:09;;;;;;;6.80;1.85;;;;;;;-143.48;45.96;118439.88;5057380;28;20472;-68
2023/04/11 10:07:54;;;;;;;10.60;2.00;;;;;;;-143.48;47.23;118439.88;5038155;28;20170;-69
2023/04/11 10:10:21;;;;;;;8.95;2.00;;;;;;;-143.48;44.20;118439.88;5053691;28;20035;-68
2023/04/11 10:12:48;;;;;;;10.15;1.80;;;;;;;-143.48;45.40;118439.88;5036581;28;20029;-68
2023/04/11 10:15:14;;;;;;;7.47;1.73;;;;;;;-143.48;43.88;118439.88;5052584;28;20117;-68
2023/04/11 10:17:40;;;;;;;7.97;1.90;;;;;;;-143.48;43.90;118439.88;5035987;28;20029;-68
2023/04/11 10:20:36;;;;;;;10.95;2.03;;;;;;;-143.48;41.91;118439.88;5047366;28;20029;-67
2023/04/11 10:23:02;;;;;;;10.77;1.85;;;;;;;-143.48;45.51;118439.88;5035497;28;20492;-69
2023/04/11 10:25:28;;;;;;;10.02;2.30;;;;;;;-143.48;44.62;118439.88;5054521;28;20362;-67
2023/04/11 10:27:59;;;;;;;7.75;1.67;;;;;;;-143.48;43.71;118439.88;5055217;28;20071;-68
2023/04/11 10:30:39;;;;;;;9.82;1.70;;;;;;;-143.48;46.41;118439.88;5037025;28;20029;-67
2023/04/11 10:33:25;;;;;;;8.98;1.60;;;;;;;-143.48;46.38;118439.88;5053270;28;20476;-67
2023/04/11 10:36:10;;;;;;;9.45;2.10;;;;;;;-143.48;46.57;118439.88;5053807;28;20028;-67
2023/04/11 10:38:47;;;;;;;12.45;1.88;;;;;;;-143.48;43.56;118439.88;5037352;28;20032;-68
2023/04/11 10:41:23;;;;;;;9.40;1.58;;;;;;;-143.48;44.39;118439.88;5057004;28;20020;-67
2023/04/11 10:43:49;;;;;;;9.02;1.58;;;;;;;-143.48;42.24;118439.88;5056491;28;20033;-67
2023/04/11 10:46:20;;;;;;;11.15;2.10;;;;;;;-143.48;43.54;118439.88;5060020;28;20028;-67
2023/04/11 10:49:33;;;;;;;8.88;2.00;;;;;;;-143.48;43.60;118439.88;5055483;28;20040;-67
2023/04/11 10:52:22;;;;;;;8.60;2.10;;;;;;;-143.48;44.68;118439.88;5049584;28;20036;-66
2023/04/11 10:54:49;;;;;;;7.05;1.80;;;;;;;-143.48;40.06;118439.88;5055286;28;20021;-67
2023/04/11 10:57:15;;;;;;;8.85;1.38;;;;;;;-143.48;40.13;118439.88;5036634;28;20013;-67
2023/04/11 10:59:49;;;;;;;10.68;1.98;;;;;;;-143.48;39.71;118439.88;5055288;28;20029;-68
2023/04/11 11:02:15;;;;;;;9.32;1.88;;;;;;;-143.48;40.87;118439.88;5059506;28;20442;-67
2023/04/11 11:04:40;;;;;;;5.78;1.77;;;;;;;-143.48;41.39;118439.88;5055486;28;20028;-67